Time,TemperatureF,DewpointF,PressureIn,WindDirection,WindDirectionDegrees,WindSpeedMPH,WindSpeedGustMPH,Humidity,HourlyPrecipIn,Conditions,Clouds,dailyrainin,SoftwareType,DateUTC
2013-03-06 00:00:00,29.0,25.3,30.06,WNW,294,1.3,4.0,86,0.00,,,0.00,WUHU216DAVISVP2,2013-03-06 05:00:00,
2013-03-06 00:05:00,28.9,25.2,30.06,NW,304,1.3,3.0,86,0.00,,,0.00,WUHU216DAVISVP2,2013-03-06 05:05:00,
2013-03-06 00:10:00,28.8,25.1,30.06,NW,324,2.0,3.0,86,0.00,,,0.00,WUHU216DAVISVP2,2013-03-06 05:10:00,
2013-03-06 00:15:00,28.8,25.4,30.06,NNW,339,1.1,3.0,87,0.00,,,0.00,WUHU216DAVISVP2,2013-03-06 05:15:00,
2013-03-06 00:20:00,28.8,25.4,30.06,NW,309,2.0,3.0,87,0.00,,,0.00,WUHU216DAVISVP2,2013-03-06 05:20:00,
2013-03-06 00:25:00,28.6,25.2,30.06,NW,326,1.0,3.0,87,0.00,,,0.00,WUHU216DAVISVP2,2013-03-06 05:25:00,
2013-03-06 00:30:00,28.6,25.2,30.06,WNW,298,2.0,3.0,87,0.00,,,0.00,WUHU216DAVISVP2,2013-03-06 05:30:00,
2013-03-06 00:35:00,28.5,25.1,30.06,NW,320,1.1,3.0,87,0.00,,,0.00,WUHU216DAVISVP2,2013-03-06 05:35:00,
2013-03-06 00:40:00,28.5,25.1,30.06,West,275,1.0,3.0,87,0.00,,,0.00,WUHU216DAVISVP2,2013-03-06 05:40:00,
2013-03-06 00:45:00,28.5,25.1,30.06,NW,313,1.1,3.0,87,0.00,,,0.00,WUHU216DAVISVP2,2013-03-06 05:45:00,
2013-03-06 00:50:00,28.6,25.2,30.06,NW,322,1.3,3.0,87,0.00,,,0.00,WUHU216DAVISVP2,2013-03-06 05:50:00,
2013-03-06 00:55:00,28.7,25.3,30.06,NNW,338,2.2,4.0,87,0.00,,,0.00,WUHU216DAVISVP2,2013-03-06 05:55:00,
2013-03-06 01:00:00,28.8,25.4,30.06,NW,312,1.9,4.0,87,0.00,,,0.00,WUHU216DAVISVP2,2013-03-06 06:00:00,
2013-03-06 01:05:00,29.0,25.6,30.06,NNW,340,1.7,5.0,87,0.00,,,0.00,WUHU216DAVISVP2,2013-03-06 06:05:00,
2013-03-06 01:10:00,29.1,25.7,30.06,NNW,345,1.8,5.0,87,0.00,,,0.00,WUHU216DAVISVP2,2013-03-06 06:10:00,
2013-03-06 01:15:00,29.1,25.7,30.06,NNE,24,2.0,4.0,87,0.00,,,0.00,WUHU216DAVISVP2,2013-03-06 06:15:00,
2013-03-06 01:20:00,29.2,25.8,30.06,NNW,339,1.4,4.0,87,0.00,,,0.00,WUHU216DAVISVP2,2013-03-06 06:20:00,
2013-03-06 01:25:00,29.3,25.9,30.06,NNE,29,2.0,4.0,87,0.00,,,0.00,WUHU216DAVISVP2,2013-03-06 06:25:00,
2013-03-06 01:30:00,29.4,26.0,30.06,NW,312,1.0,4.0,87,0.00,,,0.00,WUHU216DAVISVP2,2013-03-06 06:30:00,
2013-03-06 01:35:00,29.5,25.8,30.06,NW,323,1.9,3.0,86,0.00,,,0.00,WUHU216DAVISVP2,2013-03-06 06:35:00,
2013-03-06 01:40:00,29.5,25.8,30.06,WNW,282,1.0,3.0,86,0.00,,,0.00,WUHU216DAVISVP2,2013-03-06 06:40:00,
2013-03-06 01:45:00,29.6,25.9,30.06,North,9,2.1,4.0,86,0.00,,,0.00,WUHU216DAVISVP2,2013-03-06 06:45:00,
2013-03-06 01:50:00,29.7,26.0,30.06,NW,311,2.0,6.0,86,0.00,,,0.00,WUHU216DAVISVP2,2013-03-06 06:50:00,
2013-03-06 01:55:00,29.7,26.0,30.06,North,4,2.2,6.0,86,0.00,,,0.00,WUHU216DAVISVP2,2013-03-06 06:55:00,
2013-03-06 02:00:00,29.8,26.1,30.06,North,6,3.0,5.0,86,0.00,,,0.00,WUHU216DAVISVP2,2013-03-06 07:00:00,
2013-03-06 02:05:00,29.8,26.1,30.06,North,8,1.6,5.0,86,0.00,,,0.00,WUHU216DAVISVP2,2013-03-06 07:05:00,
2013-03-06 02:10:00,29.8,26.1,30.06,NW,313,1.6,5.0,86,0.00,,,0.00,WUHU216DAVISVP2,2013-03-06 07:10:00,
2013-03-06 02:15:00,29.8,26.1,30.06,North,356,1.8,5.0,86,0.00,,,0.00,WUHU216DAVISVP2,2013-03-06 07:15:00,
2013-03-06 02:20:00,29.8,26.1,30.06,North,8,1.5,4.0,86,0.00,,,0.00,WUHU216DAVISVP2,2013-03-06 07:20:00,
2013-03-06 02:25:00,29.8,26.1,30.06,NW,322,1.4,4.0,86,0.00,,,0.00,WUHU216DAVISVP2,2013-03-06 07:25:00,
2013-03-06 02:30:00,29.8,26.1,30.05,NNW,330,2.2,4.0,86,0.00,,,0.00,WUHU216DAVISVP2,2013-03-06 07:30:00,
2013-03-06 02:35:00,29.8,26.1,30.06,North,10,1.8,5.0,86,0.00,,,0.00,WUHU216DAVISVP2,2013-03-06 07:35:00,
2013-03-06 02:40:00,29.8,26.1,30.06,NW,306,0.0,5.0,86,0.00,,,0.00,WUHU216DAVISVP2,2013-03-06 07:40:00,
2013-03-06 02:45:00,29.8,26.1,30.05,NNE,22,1.6,5.0,86,0.00,,,0.00,WUHU216DAVISVP2,2013-03-06 07:45:00,
2013-03-06 02:50:00,29.8,26.1,30.06,NW,318,1.6,4.0,86,0.00,,,0.00,WUHU216DAVISVP2,2013-03-06 07:50:00,
2013-03-06 02:55:00,29.9,26.2,30.06,NNW,331,1.0,3.0,86,0.00,,,0.00,WUHU216DAVISVP2,2013-03-06 07:55:00,
2013-03-06 03:00:00,29.8,26.1,30.06,NW,313,1.0,3.0,86,0.00,,,0.00,WUHU216DAVISVP2,2013-03-06 08:00:00,
2013-03-06 03:05:00,29.8,26.1,30.05,NW,313,1.8,3.0,86,0.00,,,0.00,WUHU216DAVISVP2,2013-03-06 08:05:00,
2013-03-06 03:10:00,29.8,26.1,30.05,NW,315,1.0,3.0,86,0.00,,,0.00,WUHU216DAVISVP2,2013-03-06 08:10:00,
2013-03-06 03:15:00,29.8,26.1,30.05,NW,307,2.0,3.0,86,0.00,,,0.00,WUHU216DAVISVP2,2013-03-06 08:15:00,
2013-03-06 03:20:00,29.8,26.1,30.05,WNW,289,1.0,3.0,86,0.00,,,0.00,WUHU216DAVISVP2,2013-03-06 08:20:00,
2013-03-06 03:25:00,29.8,26.4,30.05,NNW,330,1.2,3.0,87,0.00,,,0.00,WUHU216DAVISVP2,2013-03-06 08:25:00,
2013-03-06 03:30:00,29.8,26.4,30.05,NNE,25,3.0,3.0,87,0.00,,,0.00,WUHU216DAVISVP2,2013-03-06 08:30:00,
2013-03-06 03:35:00,29.9,26.5,30.05,North,355,1.5,3.0,87,0.00,,,0.00,WUHU216DAVISVP2,2013-03-06 08:35:00,
2013-03-06 03:40:00,29.9,26.5,30.05,NNE,23,3.0,5.0,87,0.00,,,0.00,WUHU216DAVISVP2,2013-03-06 08:40:00,
2013-03-06 03:45:00,29.9,26.2,30.05,North,358,2.1,5.0,86,0.00,,,0.00,WUHU216DAVISVP2,2013-03-06 08:45:00,
2013-03-06 03:50:00,29.9,26.5,30.05,NNW,329,1.0,5.0,87,0.00,,,0.00,WUHU216DAVISVP2,2013-03-06 08:50:00,
2013-03-06 03:55:00,29.9,26.5,30.05,NW,307,1.2,5.0,87,0.00,,,0.00,WUHU216DAVISVP2,2013-03-06 08:55:00,
2013-03-06 04:00:00,29.9,26.5,30.05,North,3,2.3,5.0,87,0.00,,,0.00,WUHU216DAVISVP2,2013-03-06 09:00:00,
2013-03-06 04:05:00,29.9,26.5,30.05,NW,316,3.0,5.0,87,0.00,,,0.00,WUHU216DAVISVP2,2013-03-06 09:05:00,
2013-03-06 04:10:00,29.9,26.5,30.05,North,6,1.3,5.0,87,0.00,,,0.00,WUHU216DAVISVP2,2013-03-06 09:10:00,
2013-03-06 04:15:00,29.9,26.5,30.05,NNE,20,2.8,5.0,87,0.00,,,0.00,WUHU216DAVISVP2,2013-03-06 09:15:00,
2013-03-06 04:20:00,29.9,26.5,30.05,WNW,285,1.3,5.0,87,0.00,,,0.00,WUHU216DAVISVP2,2013-03-06 09:20:00,
2013-03-06 04:25:00,29.9,26.5,30.05,WNW,302,1.8,5.0,87,0.00,,,0.00,WUHU216DAVISVP2,2013-03-06 09:25:00,
2013-03-06 04:30:00,29.9,26.5,30.05,NW,324,1.0,4.0,87,0.00,,,0.00,WUHU216DAVISVP2,2013-03-06 09:30:00,
2013-03-06 04:35:00,29.9,26.5,30.05,NNW,329,1.5,3.0,87,0.00,,,0.00,WUHU216DAVISVP2,2013-03-06 09:35:00,
2013-03-06 04:40:00,30.0,26.6,30.06,NW,310,1.8,3.0,87,0.00,,,0.00,WUHU216DAVISVP2,2013-03-06 09:40:00,
2013-03-06 04:45:00,29.9,26.5,30.05,North,7,1.0,3.0,87,0.00,,,0.00,WUHU216DAVISVP2,2013-03-06 09:45:00,
2013-03-06 04:50:00,29.9,26.5,30.05,NNW,343,1.0,3.0,87,0.00,,,0.00,WUHU216DAVISVP2,2013-03-06 09:50:00,
2013-03-06 04:55:00,29.9,26.5,30.05,NW,309,1.2,3.0,87,0.00,,,0.00,WUHU216DAVISVP2,2013-03-06 09:55:00,
2013-03-06 05:00:00,29.9,26.5,30.05,WNW,295,1.0,2.0,87,0.00,,,0.00,WUHU216DAVISVP2,2013-03-06 10:00:00,
2013-03-06 05:05:00,29.9,26.5,30.05,NNW,333,2.1,5.0,87,0.00,,,0.00,WUHU216DAVISVP2,2013-03-06 10:05:00,
2013-03-06 05:10:00,29.9,26.5,30.05,North,351,2.0,5.0,87,0.00,,,0.00,WUHU216DAVISVP2,2013-03-06 10:10:00,
2013-03-06 05:15:00,29.9,26.5,30.05,North,349,0.0,5.0,87,0.00,,,0.00,WUHU216DAVISVP2,2013-03-06 10:15:00,
2013-03-06 05:20:00,30.0,26.6,30.05,WNW,293,1.3,5.0,87,0.00,,,0.00,WUHU216DAVISVP2,2013-03-06 10:20:00,
2013-03-06 05:25:00,30.0,26.6,30.05,NNW,335,1.3,3.0,87,0.00,,,0.00,WUHU216DAVISVP2,2013-03-06 10:25:00,
2013-03-06 05:30:00,30.0,26.6,30.05,NW,321,2.3,4.0,87,0.00,,,0.00,WUHU216DAVISVP2,2013-03-06 10:30:00,
2013-03-06 05:35:00,30.0,26.6,30.05,WNW,290,1.0,4.0,87,0.00,,,0.00,WUHU216DAVISVP2,2013-03-06 10:35:00,
2013-03-06 05:40:00,30.0,26.6,30.05,NW,305,0.0,4.0,87,0.00,,,0.00,WUHU216DAVISVP2,2013-03-06 10:40:00,
2013-03-06 05:45:00,30.1,26.7,30.05,West,267,1.0,4.0,87,0.00,,,0.00,WUHU216DAVISVP2,2013-03-06 10:45:00,
2013-03-06 05:50:00,30.1,26.7,30.06,NW,316,0.0,3.0,87,0.00,,,0.00,WUHU216DAVISVP2,2013-03-06 10:50:00,
2013-03-06 05:55:00,30.1,26.7,30.06,NNE,12,0.0,3.0,87,0.00,,,0.00,WUHU216DAVISVP2,2013-03-06 10:55:00,
2013-03-06 06:00:00,30.2,26.8,30.06,NW,314,1.2,3.0,87,0.00,,,0.00,WUHU216DAVISVP2,2013-03-06 11:00:00,
2013-03-06 06:05:00,30.2,26.8,30.06,West,281,1.5,3.0,87,0.00,,,0.00,WUHU216DAVISVP2,2013-03-06 11:05:00,
2013-03-06 06:10:00,30.3,26.9,30.06,NW,304,1.0,3.0,87,0.00,,,0.00,WUHU216DAVISVP2,2013-03-06 11:10:00,
2013-03-06 06:15:00,30.3,26.9,30.06,NW,311,1.0,3.0,87,0.00,,,0.00,WUHU216DAVISVP2,2013-03-06 11:15:00,
2013-03-06 06:20:00,30.3,26.9,30.06,North,7,1.4,3.0,87,0.00,,,0.00,WUHU216DAVISVP2,2013-03-06 11:20:00,
2013-03-06 06:25:00,30.4,27.0,30.06,North,9,1.3,3.0,87,0.00,,,0.00,WUHU216DAVISVP2,2013-03-06 11:25:00,
2013-03-06 06:30:00,30.4,27.0,30.06,North,6,0.0,3.0,87,0.00,,,0.00,WUHU216DAVISVP2,2013-03-06 11:30:00,
2013-03-06 06:35:00,30.4,27.0,30.06,North,350,0.0,3.0,87,0.00,,,0.00,WUHU216DAVISVP2,2013-03-06 11:35:00,
2013-03-06 06:40:00,30.4,27.0,30.06,NW,312,2.0,3.0,87,0.00,,,0.00,WUHU216DAVISVP2,2013-03-06 11:40:00,
2013-03-06 06:45:00,30.4,27.0,30.06,WNW,294,0.0,3.0,87,0.00,,,0.00,WUHU216DAVISVP2,2013-03-06 11:45:00,
2013-03-06 06:50:00,30.5,27.1,30.06,North,354,0.0,3.0,87,0.00,,,0.00,WUHU216DAVISVP2,2013-03-06 11:50:00,
2013-03-06 06:55:00,30.5,27.1,30.06,NNW,348,1.0,3.0,87,0.00,,,0.00,WUHU216DAVISVP2,2013-03-06 11:55:00,
2013-03-06 07:00:00,30.6,27.2,30.06,NW,319,1.6,2.0,87,0.00,,,0.00,WUHU216DAVISVP2,2013-03-06 12:00:00,
2013-03-06 07:05:00,30.7,27.3,30.06,NW,309,0.0,3.0,87,0.00,,,0.00,WUHU216DAVISVP2,2013-03-06 12:05:00,
2013-03-06 07:10:00,30.8,27.4,30.06,WNW,291,2.2,3.0,87,0.00,,,0.00,WUHU216DAVISVP2,2013-03-06 12:10:00,
2013-03-06 07:15:00,30.9,27.5,30.06,NNW,337,2.4,5.0,87,0.00,,,0.00,WUHU216DAVISVP2,2013-03-06 12:15:00,
2013-03-06 07:20:00,31.0,27.6,30.06,NNW,347,1.9,5.0,87,0.00,,,0.00,WUHU216DAVISVP2,2013-03-06 12:20:00,
2013-03-06 07:25:00,31.1,27.6,30.06,NNE,23,1.8,5.0,87,0.00,,,0.00,WUHU216DAVISVP2,2013-03-06 12:25:00,
2013-03-06 07:30:00,31.2,27.7,30.06,North,10,1.5,5.0,87,0.00,,,0.00,WUHU216DAVISVP2,2013-03-06 12:30:00,
2013-03-06 07:35:00,31.4,27.9,30.06,North,4,3.3,6.0,87,0.00,,,0.00,WUHU216DAVISVP2,2013-03-06 12:35:00,
2013-03-06 07:40:00,31.5,28.1,30.06,NNW,345,2.5,6.0,87,0.00,,,0.00,WUHU216DAVISVP2,2013-03-06 12:40:00,
2013-03-06 07:45:00,31.5,28.0,30.06,North,0,3.7,7.0,87,0.00,,,0.00,WUHU216DAVISVP2,2013-03-06 12:45:00,
2013-03-06 07:50:00,31.6,28.1,30.06,NNE,12,3.9,7.0,87,0.00,,,0.00,WUHU216DAVISVP2,2013-03-06 12:50:00,
2013-03-06 07:55:00,31.8,28.3,30.06,North,356,1.3,7.0,87,0.00,,,0.00,WUHU216DAVISVP2,2013-03-06 12:55:00,
2013-03-06 08:00:00,32.0,28.5,30.06,North,356,2.0,6.0,87,0.00,,,0.00,WUHU216DAVISVP2,2013-03-06 13:00:00,
2013-03-06 08:05:00,32.1,28.7,30.06,NNW,337,2.8,6.0,87,0.00,,,0.00,WUHU216DAVISVP2,2013-03-06 13:05:00,
2013-03-06 08:10:00,32.3,28.8,30.06,NNW,342,1.8,6.0,87,0.00,,,0.00,WUHU216DAVISVP2,2013-03-06 13:10:00,
2013-03-06 08:15:00,32.5,28.7,30.06,North,8,3.0,6.0,86,0.00,,,0.00,WUHU216DAVISVP2,2013-03-06 13:15:00,
2013-03-06 08:20:00,32.7,28.9,30.06,NNW,342,1.6,5.0,86,0.00,,,0.00,WUHU216DAVISVP2,2013-03-06 13:20:00,
2013-03-06 08:25:00,32.9,29.1,30.06,NNE,30,4.0,6.0,86,0.00,,,0.00,WUHU216DAVISVP2,2013-03-06 13:25:00,
2013-03-06 08:30:00,33.1,29.4,30.06,North,356,2.9,6.0,86,0.00,,,0.00,WUHU216DAVISVP2,2013-03-06 13:30:00,
2013-03-06 08:35:00,33.3,29.3,30.06,NNE,22,5.0,6.0,85,0.00,,,0.00,WUHU216DAVISVP2,2013-03-06 13:35:00,
2013-03-06 08:40:00,33.5,29.5,30.06,North,6,2.2,6.0,85,0.00,,,0.00,WUHU216DAVISVP2,2013-03-06 13:40:00,
2013-03-06 08:45:00,33.7,29.6,30.06,NNW,344,2.9,6.0,85,0.00,,,0.00,WUHU216DAVISVP2,2013-03-06 13:45:00,
2013-03-06 08:50:00,33.9,29.8,30.06,North,3,2.5,6.0,85,0.00,,,0.00,WUHU216DAVISVP2,2013-03-06 13:50:00,
2013-03-06 08:55:00,34.2,29.9,30.06,North,8,4.0,5.0,84,0.00,,,0.00,WUHU216DAVISVP2,2013-03-06 13:55:00,
2013-03-06 09:00:00,34.5,30.1,30.06,NW,316,4.0,7.0,84,0.00,,,0.00,WUHU216DAVISVP2,2013-03-06 14:00:00,
2013-03-06 09:05:00,34.7,30.3,30.06,NNW,346,2.3,7.0,84,0.00,,,0.00,WUHU216DAVISVP2,2013-03-06 14:05:00,
2013-03-06 09:10:00,35.0,30.3,30.06,NNE,20,4.0,7.0,83,0.00,,,0.00,WUHU216DAVISVP2,2013-03-06 14:10:00,
2013-03-06 09:15:00,35.2,30.5,30.07,NNE,17,4.1,8.0,83,0.00,,,0.00,WUHU216DAVISVP2,2013-03-06 14:15:00,
2013-03-06 09:20:00,35.5,30.8,30.07,NW,320,2.8,8.0,83,0.00,,,0.00,WUHU216DAVISVP2,2013-03-06 14:20:00,
2013-03-06 09:25:00,35.7,31.0,30.07,NNE,30,3.0,10.0,83,0.00,,,0.00,WUHU216DAVISVP2,2013-03-06 14:25:00,
2013-03-06 09:30:00,35.8,30.8,30.07,NNE,13,2.8,10.0,82,0.00,,,0.00,WUHU216DAVISVP2,2013-03-06 14:30:00,
2013-03-06 09:35:00,36.2,31.2,30.07,NNW,346,1.9,9.0,82,0.00,,,0.00,WUHU216DAVISVP2,2013-03-06 14:35:00,
2013-03-06 09:40:00,36.4,31.4,30.07,NNE,22,4.7,9.0,82,0.00,,,0.00,WUHU216DAVISVP2,2013-03-06 14:40:00,
2013-03-06 09:45:00,36.7,31.7,30.07,NNE,14,4.6,8.0,82,0.00,,,0.00,WUHU216DAVISVP2,2013-03-06 14:45:00,
2013-03-06 09:50:00,36.9,31.9,30.07,North,11,5.0,8.0,82,0.00,,,0.00,WUHU216DAVISVP2,2013-03-06 14:50:00,
2013-03-06 09:55:00,37.1,31.8,30.06,NNE,32,7.5,12.0,81,0.00,,,0.00,WUHU216DAVISVP2,2013-03-06 14:55:00,
2013-03-06 10:00:00,37.2,31.9,30.06,NE,49,6.0,12.0,81,0.00,,,0.00,WUHU216DAVISVP2,2013-03-06 15:00:00,
2013-03-06 10:05:00,37.4,31.8,30.06,NE,43,6.0,11.0,80,0.00,,,0.00,WUHU216DAVISVP2,2013-03-06 15:05:00,
2013-03-06 10:10:00,37.5,31.9,30.06,NNE,27,13.0,13.0,80,0.00,,,0.00,WUHU216DAVISVP2,2013-03-06 15:10:00,
2013-03-06 10:15:00,37.5,31.9,30.06,NE,35,8.0,14.0,80,0.00,,,0.00,WUHU216DAVISVP2,2013-03-06 15:15:00,
2013-03-06 10:20:00,37.8,32.2,30.06,North,5,7.0,14.0,80,0.00,,,0.00,WUHU216DAVISVP2,2013-03-06 15:20:00,
2013-03-06 10:25:00,38.0,32.1,30.06,NNE,23,5.3,12.0,79,0.00,,,0.00,WUHU216DAVISVP2,2013-03-06 15:25:00,
2013-03-06 10:30:00,38.3,32.4,30.06,NNE,20,6.1,12.0,79,0.00,,,0.00,WUHU216DAVISVP2,2013-03-06 15:30:00,
2013-03-06 10:35:00,38.6,32.4,30.06,NNE,16,10.0,12.0,78,0.00,,,0.00,WUHU216DAVISVP2,2013-03-06 15:35:00,
2013-03-06 10:40:00,38.8,32.6,30.06,NNE,14,7.0,12.0,78,0.00,,,0.00,WUHU216DAVISVP2,2013-03-06 15:40:00,
2013-03-06 10:45:00,39.1,32.5,30.05,NNW,340,8.0,12.0,77,0.00,,,0.00,WUHU216DAVISVP2,2013-03-06 15:45:00,
2013-03-06 10:50:00,39.2,32.3,30.05,NE,46,6.0,12.0,76,0.00,,,0.00,WUHU216DAVISVP2,2013-03-06 15:50:00,
2013-03-06 10:55:00,39.7,32.8,30.05,NE,35,7.7,12.0,76,0.00,,,0.00,WUHU216DAVISVP2,2013-03-06 15:55:00,
2013-03-06 11:00:00,40.1,32.9,30.05,ENE,59,4.2,11.0,75,0.00,,,0.00,WUHU216DAVISVP2,2013-03-06 16:00:00,
2013-03-06 11:05:00,40.6,33.0,30.05,NNE,30,12.0,14.0,74,0.00,,,0.00,WUHU216DAVISVP2,2013-03-06 16:05:00,
2013-03-06 11:10:00,40.7,32.8,30.05,NE,56,4.0,15.0,73,0.00,,,0.00,WUHU216DAVISVP2,2013-03-06 16:10:00,
2013-03-06 11:15:00,41.0,32.7,30.05,ENE,64,6.0,15.0,72,0.00,,,0.00,WUHU216DAVISVP2,2013-03-06 16:15:00,
2013-03-06 11:20:00,41.2,32.6,30.05,NE,45,6.4,15.0,71,0.00,,,0.00,WUHU216DAVISVP2,2013-03-06 16:20:00,
2013-03-06 11:25:00,41.6,32.3,30.05,ENE,78,8.0,19.0,69,0.00,,,0.00,WUHU216DAVISVP2,2013-03-06 16:25:00,
2013-03-06 11:30:00,41.9,31.8,30.05,NE,52,11.0,19.0,67,0.00,,,0.00,WUHU216DAVISVP2,2013-03-06 16:30:00,
2013-03-06 11:35:00,41.9,31.5,30.05,ENE,74,10.3,17.0,66,0.00,,,0.00,WUHU216DAVISVP2,2013-03-06 16:35:00,
2013-03-06 11:40:00,41.9,31.5,30.05,NE,51,8.3,17.0,66,0.00,,,0.00,WUHU216DAVISVP2,2013-03-06 16:40:00,
2013-03-06 11:45:00,42.0,31.5,30.05,East,90,8.0,16.0,66,0.00,,,0.00,WUHU216DAVISVP2,2013-03-06 16:45:00,
2013-03-06 11:50:00,42.2,31.4,30.05,ENE,66,6.0,16.0,65,0.00,,,0.00,WUHU216DAVISVP2,2013-03-06 16:50:00,
2013-03-06 11:55:00,42.0,31.2,30.05,ENE,72,10.0,15.0,65,0.00,,,0.00,WUHU216DAVISVP2,2013-03-06 16:55:00,
2013-03-06 12:00:00,42.0,31.2,30.05,NE,37,6.0,15.0,65,0.00,,,0.00,WUHU216DAVISVP2,2013-03-06 17:00:00,
2013-03-06 12:05:00,42.0,30.8,30.05,ENE,77,9.0,16.0,64,0.00,,,0.00,WUHU216DAVISVP2,2013-03-06 17:05:00,
2013-03-06 12:10:00,42.2,31.0,30.05,East,85,8.2,16.0,64,0.00,,,0.00,WUHU216DAVISVP2,2013-03-06 17:10:00,
2013-03-06 12:15:00,42.4,31.2,30.05,ENE,67,7.0,14.0,64,0.00,,,0.00,WUHU216DAVISVP2,2013-03-06 17:15:00,
2013-03-06 12:20:00,42.6,31.4,30.06,ENE,58,9.0,14.0,64,0.00,,,0.00,WUHU216DAVISVP2,2013-03-06 17:20:00,
2013-03-06 12:25:00,42.5,30.5,30.06,ESE,115,12.0,15.0,62,0.00,,,0.00,WUHU216DAVISVP2,2013-03-06 17:25:00,
2013-03-06 12:30:00,42.5,30.5,30.06,ENE,71,7.0,17.0,62,0.00,,,0.00,WUHU216DAVISVP2,2013-03-06 17:30:00,
2013-03-06 12:35:00,42.6,30.2,30.05,ENE,60,10.1,18.0,61,0.00,,,0.00,WUHU216DAVISVP2,2013-03-06 17:35:00,
2013-03-06 12:40:00,42.6,30.2,30.05,ESE,115,11.0,19.0,61,0.00,,,0.00,WUHU216DAVISVP2,2013-03-06 17:40:00,
2013-03-06 12:45:00,42.6,30.2,30.05,East,92,8.5,19.0,61,0.00,,,0.00,WUHU216DAVISVP2,2013-03-06 17:45:00,
2013-03-06 12:50:00,42.2,30.6,30.06,ENE,59,10.1,19.0,63,0.00,,,0.00,WUHU216DAVISVP2,2013-03-06 17:50:00,
2013-03-06 12:55:00,42.0,30.4,30.05,East,93,10.1,19.0,63,0.00,,,0.00,WUHU216DAVISVP2,2013-03-06 17:55:00,
2013-03-06 13:00:00,42.0,30.8,30.06,East,89,13.0,18.0,64,0.00,,,0.00,WUHU216DAVISVP2,2013-03-06 18:00:00,
2013-03-06 13:05:00,42.2,30.9,30.05,ESE,120,11.0,18.0,64,0.00,,,0.00,WUHU216DAVISVP2,2013-03-06 18:05:00,
2013-03-06 13:10:00,42.5,30.4,30.05,ENE,63,14.0,18.0,62,0.00,,,0.00,WUHU216DAVISVP2,2013-03-06 18:10:00,
2013-03-06 13:15:00,42.4,29.9,30.05,East,95,11.0,21.0,61,0.00,,,0.00,WUHU216DAVISVP2,2013-03-06 18:15:00,
2013-03-06 13:20:00,42.4,30.0,30.05,NE,56,12.0,21.0,61,0.00,,,0.00,WUHU216DAVISVP2,2013-03-06 18:20:00,
2013-03-06 13:25:00,42.2,30.2,30.05,ENE,58,14.0,19.0,62,0.00,,,0.00,WUHU216DAVISVP2,2013-03-06 18:25:00,
2013-03-06 13:30:00,41.9,30.3,30.05,NE,46,7.6,20.0,63,0.00,,,0.00,WUHU216DAVISVP2,2013-03-06 18:30:00,
2013-03-06 13:35:00,41.9,29.8,30.05,ENE,66,9.8,20.0,62,0.00,,,0.00,WUHU216DAVISVP2,2013-03-06 18:35:00,
2013-03-06 13:40:00,41.9,29.8,30.05,ENE,58,8.5,19.0,62,0.00,,,0.00,WUHU216DAVISVP2,2013-03-06 18:40:00,
2013-03-06 13:45:00,41.7,30.0,30.06,ENE,63,10.1,18.0,63,0.00,,,0.00,WUHU216DAVISVP2,2013-03-06 18:45:00,
2013-03-06 13:50:00,41.5,29.9,30.06,NE,56,11.0,18.0,63,0.00,,,0.00,WUHU216DAVISVP2,2013-03-06 18:50:00,
2013-03-06 13:55:00,41.6,29.6,30.06,ENE,72,7.5,18.0,62,0.00,,,0.00,WUHU216DAVISVP2,2013-03-06 18:55:00,
2013-03-06 14:00:00,41.6,29.6,30.06,ENE,62,5.8,18.0,62,0.00,,,0.00,WUHU216DAVISVP2,2013-03-06 19:00:00,
2013-03-06 14:05:00,41.3,30.0,30.06,NE,49,9.0,16.0,64,0.00,,,0.00,WUHU216DAVISVP2,2013-03-06 19:05:00,
2013-03-06 14:10:00,40.7,30.6,30.06,ENE,65,12.0,16.0,67,0.00,,,0.00,WUHU216DAVISVP2,2013-03-06 19:10:00,
2013-03-06 14:15:00,40.4,30.7,30.06,NE,45,10.3,18.0,68,0.00,,,0.00,WUHU216DAVISVP2,2013-03-06 19:15:00,
2013-03-06 14:20:00,40.4,30.8,30.06,NE,42,6.6,18.0,68,0.00,,,0.00,WUHU216DAVISVP2,2013-03-06 19:20:00,
2013-03-06 14:25:00,40.3,30.7,30.07,NE,39,16.0,20.0,68,0.00,,,0.00,WUHU216DAVISVP2,2013-03-06 19:25:00,
2013-03-06 14:30:00,40.2,30.6,30.07,NE,39,8.0,20.0,68,0.00,,,0.00,WUHU216DAVISVP2,2013-03-06 19:30:00,
2013-03-06 14:35:00,40.0,29.9,30.07,NE,49,13.0,20.0,67,0.00,,,0.00,WUHU216DAVISVP2,2013-03-06 19:35:00,
2013-03-06 14:40:00,40.0,29.9,30.07,NE,55,4.6,19.0,67,0.00,,,0.00,WUHU216DAVISVP2,2013-03-06 19:40:00,
2013-03-06 14:45:00,40.2,29.7,30.07,NE,53,6.6,18.0,66,0.00,,,0.00,WUHU216DAVISVP2,2013-03-06 19:45:00,
2013-03-06 14:50:00,40.4,29.6,30.07,NE,50,10.6,16.0,65,0.00,,,0.00,WUHU216DAVISVP2,2013-03-06 19:50:00,
2013-03-06 14:55:00,40.2,29.8,30.07,NE,52,11.0,16.0,66,0.00,,,0.00,WUHU216DAVISVP2,2013-03-06 19:55:00,
2013-03-06 15:00:00,40.0,29.6,30.07,NE,37,12.5,21.0,66,0.00,,,0.00,WUHU216DAVISVP2,2013-03-06 20:00:00,
2013-03-06 15:05:00,39.8,29.4,30.07,NNE,30,13.0,21.0,66,0.00,,,0.00,WUHU216DAVISVP2,2013-03-06 20:05:00,
2013-03-06 15:10:00,39.7,29.3,30.07,NE,35,8.9,20.0,66,0.00,,,0.00,WUHU216DAVISVP2,2013-03-06 20:10:00,
2013-03-06 15:15:00,39.7,29.3,30.07,NNE,33,12.0,20.0,66,0.00,,,0.00,WUHU216DAVISVP2,2013-03-06 20:15:00,
2013-03-06 15:20:00,39.6,29.3,30.08,NE,34,10.5,18.0,66,0.00,,,0.00,WUHU216DAVISVP2,2013-03-06 20:20:00,
2013-03-06 15:25:00,39.5,29.2,30.07,NE,51,11.1,20.0,66,0.00,,,0.00,WUHU216DAVISVP2,2013-03-06 20:25:00,
2013-03-06 15:30:00,39.5,29.2,30.07,NNE,33,9.0,20.0,66,0.00,,,0.00,WUHU216DAVISVP2,2013-03-06 20:30:00,
2013-03-06 15:35:00,39.4,29.0,30.07,NE,46,15.0,19.0,66,0.00,,,0.00,WUHU216DAVISVP2,2013-03-06 20:35:00,
2013-03-06 15:40:00,39.4,29.0,30.07,NNE,16,12.0,19.0,66,0.00,,,0.00,WUHU216DAVISVP2,2013-03-06 20:40:00,
2013-03-06 15:45:00,39.4,28.6,30.07,NE,41,9.6,18.0,65,0.00,,,0.00,WUHU216DAVISVP2,2013-03-06 20:45:00,
2013-03-06 15:50:00,39.5,28.7,30.07,NNE,32,7.5,18.0,65,0.00,,,0.00,WUHU216DAVISVP2,2013-03-06 20:50:00,
2013-03-06 15:55:00,39.5,28.8,30.07,NNE,23,9.0,17.0,65,0.00,,,0.00,WUHU216DAVISVP2,2013-03-06 20:55:00,
2013-03-06 16:00:00,39.4,28.7,30.08,NE,52,8.9,17.0,65,0.00,,,0.00,WUHU216DAVISVP2,2013-03-06 21:00:00,
2013-03-06 16:06:00,39.3,28.5,30.08,NNE,18,9.0,17.0,65,0.00,,,0.00,WUHU216DAVISVP2,2013-03-06 21:06:00,
2013-03-06 16:11:00,39.3,28.6,30.08,NE,38,7.4,17.0,65,0.00,,,0.00,WUHU216DAVISVP2,2013-03-06 21:11:00,
2013-03-06 16:16:00,39.2,28.5,30.08,NE,36,6.1,16.0,65,0.00,,,0.00,WUHU216DAVISVP2,2013-03-06 21:16:00,
2013-03-06 16:21:00,39.2,28.4,30.08,NE,40,9.0,20.0,65,0.00,,,0.00,WUHU216DAVISVP2,2013-03-06 21:21:00,
2013-03-06 16:26:00,39.2,28.1,30.08,NE,46,9.0,20.0,64,0.00,,,0.00,WUHU216DAVISVP2,2013-03-06 21:26:00,
2013-03-06 16:31:00,39.3,28.2,30.08,ENE,58,9.0,18.0,64,0.00,,,0.00,WUHU216DAVISVP2,2013-03-06 21:31:00,
2013-03-06 16:36:00,39.3,28.6,30.08,NNE,31,6.3,18.0,65,0.00,,,0.00,WUHU216DAVISVP2,2013-03-06 21:36:00,
2013-03-06 16:41:00,39.3,28.2,30.08,NNE,24,11.0,17.0,64,0.00,,,0.00,WUHU216DAVISVP2,2013-03-06 21:41:00,
2013-03-06 16:46:00,39.2,28.1,30.08,NE,46,10.0,17.0,64,0.00,,,0.00,WUHU216DAVISVP2,2013-03-06 21:46:00,
2013-03-06 16:51:00,39.3,28.1,30.08,ENE,58,10.0,16.0,64,0.00,,,0.00,WUHU216DAVISVP2,2013-03-06 21:51:00,
2013-03-06 16:56:00,39.3,28.2,30.08,NE,46,12.0,16.0,64,0.00,,,0.00,WUHU216DAVISVP2,2013-03-06 21:56:00,
2013-03-06 17:01:00,39.3,28.2,30.08,NE,46,6.0,16.0,64,0.00,,,0.00,WUHU216DAVISVP2,2013-03-06 22:01:00,
2013-03-06 17:06:00,39.3,28.1,30.08,NNE,20,5.4,16.0,64,0.00,,,0.00,WUHU216DAVISVP2,2013-03-06 22:06:00,
2013-03-06 17:11:00,39.3,28.2,30.08,NNE,26,11.0,15.0,64,0.00,,,0.00,WUHU216DAVISVP2,2013-03-06 22:11:00,
2013-03-06 17:16:00,39.3,28.2,30.09,North,5,15.0,17.0,64,0.00,,,0.00,WUHU216DAVISVP2,2013-03-06 22:16:00,
2013-03-06 17:21:00,39.3,28.2,30.09,NE,37,14.0,18.0,64,0.00,,,0.00,WUHU216DAVISVP2,2013-03-06 22:21:00,
2013-03-06 17:26:00,39.2,28.0,30.09,NNE,33,8.6,18.0,64,0.00,,,0.00,WUHU216DAVISVP2,2013-03-06 22:26:00,
2013-03-06 17:31:00,39.2,28.1,30.09,NE,36,6.5,17.0,64,0.00,,,0.00,WUHU216DAVISVP2,2013-03-06 22:31:00,
2013-03-06 17:36:00,39.2,28.1,30.10,NNE,26,5.2,15.0,64,0.00,,,0.00,WUHU216DAVISVP2,2013-03-06 22:36:00,
2013-03-06 17:41:00,39.1,28.4,30.10,NE,51,6.0,15.0,65,0.00,,,0.00,WUHU216DAVISVP2,2013-03-06 22:41:00,
2013-03-06 17:46:00,39.0,28.3,30.10,ENE,70,7.0,14.0,65,0.00,,,0.00,WUHU216DAVISVP2,2013-03-06 22:46:00,
2013-03-06 17:51:00,39.0,28.3,30.10,NE,34,8.5,14.0,65,0.00,,,0.00,WUHU216DAVISVP2,2013-03-06 22:51:00,
2013-03-06 17:56:00,38.9,28.1,30.11,NNE,22,8.0,14.0,65,0.00,,,0.00,WUHU216DAVISVP2,2013-03-06 22:56:00,
2013-03-06 18:01:00,38.8,28.1,30.11,NNE,18,7.0,13.0,65,0.00,,,0.00,WUHU216DAVISVP2,2013-03-06 23:01:00,
2013-03-06 18:06:00,38.8,28.5,30.11,ENE,62,5.0,13.0,66,0.00,,,0.00,WUHU216DAVISVP2,2013-03-06 23:06:00,
2013-03-06 18:11:00,38.8,28.5,30.11,NE,36,8.5,16.0,66,0.00,,,0.00,WUHU216DAVISVP2,2013-03-06 23:11:00,
2013-03-06 18:16:00,38.8,28.5,30.11,NE,46,12.0,16.0,66,0.00,,,0.00,WUHU216DAVISVP2,2013-03-06 23:16:00,
2013-03-06 18:21:00,38.7,28.4,30.11,NNE,20,11.0,16.0,66,0.00,,,0.00,WUHU216DAVISVP2,2013-03-06 23:21:00,
2013-03-06 18:26:00,38.6,28.6,30.12,NE,40,11.0,18.0,67,0.00,,,0.00,WUHU216DAVISVP2,2013-03-06 23:26:00,
2013-03-06 18:30:00,38.4,28.4,30.12,ENE,57,6.9,18.0,67,0.00,,,0.00,WUHU216DAVISVP2,2013-03-06 23:30:00,
2013-03-06 18:36:00,38.2,29.0,30.12,NE,50,6.0,17.0,69,0.00,,,0.00,WUHU216DAVISVP2,2013-03-06 23:36:00,
2013-03-06 18:41:00,38.1,28.9,30.13,ENE,66,5.7,17.0,69,0.00,,,0.00,WUHU216DAVISVP2,2013-03-06 23:41:00,
2013-03-06 18:46:00,38.0,28.8,30.13,East,80,5.0,13.0,69,0.00,,,0.00,WUHU216DAVISVP2,2013-03-06 23:46:00,
2013-03-06 18:50:00,38.0,28.1,30.13,ENE,75,6.0,12.0,67,0.00,,,0.00,WUHU216DAVISVP2,2013-03-06 23:50:00,
2013-03-06 18:55:00,38.1,28.2,30.13,ENE,58,8.4,17.0,67,0.00,,,0.00,WUHU216DAVISVP2,2013-03-06 23:55:00,
2013-03-06 19:01:00,38.1,27.4,30.13,NE,49,8.8,17.0,65,0.00,,,0.00,WUHU216DAVISVP2,2013-03-07 00:01:00,
2013-03-06 19:05:00,38.1,27.4,30.13,NE,49,10.3,22.0,65,0.00,,,0.00,WUHU216DAVISVP2,2013-03-07 00:05:00,
2013-03-06 19:11:00,38.0,27.0,30.13,NE,54,9.3,22.0,64,0.00,,,0.00,WUHU216DAVISVP2,2013-03-07 00:11:00,
2013-03-06 19:16:00,38.0,27.0,30.13,ENE,68,5.1,22.0,64,0.00,,,0.00,WUHU216DAVISVP2,2013-03-07 00:16:00,
2013-03-06 19:21:00,37.9,26.9,30.13,ENE,57,4.2,22.0,64,0.00,,,0.00,WUHU216DAVISVP2,2013-03-07 00:21:00,
2013-03-06 19:26:00,38.0,26.1,30.13,ENE,71,7.6,16.0,62,0.00,,,0.00,WUHU216DAVISVP2,2013-03-07 00:26:00,
2013-03-06 19:31:00,38.0,26.1,30.13,NE,55,9.7,16.0,62,0.00,,,0.00,WUHU216DAVISVP2,2013-03-07 00:31:00,
2013-03-06 19:36:00,38.0,26.2,30.13,NE,38,7.2,15.0,62,0.00,,,0.00,WUHU216DAVISVP2,2013-03-07 00:36:00,
2013-03-06 19:40:00,38.0,26.2,30.13,NE,54,6.4,14.0,62,0.00,,,0.00,WUHU216DAVISVP2,2013-03-07 00:40:00,
2013-03-06 19:45:00,37.9,26.1,30.13,ENE,69,7.0,13.0,62,0.00,,,0.00,WUHU216DAVISVP2,2013-03-07 00:45:00,
2013-03-06 19:50:00,37.9,26.1,30.13,NE,46,11.0,14.0,62,0.00,,,0.00,WUHU216DAVISVP2,2013-03-07 00:50:00,
2013-03-06 19:55:00,37.9,25.6,30.13,NE,54,5.0,14.0,61,0.00,,,0.00,WUHU216DAVISVP2,2013-03-07 00:55:00,
2013-03-06 20:01:00,37.8,25.5,30.13,NE,51,10.0,14.0,61,0.00,,,0.00,WUHU216DAVISVP2,2013-03-07 01:01:00,
2013-03-06 20:06:00,37.8,25.6,30.13,NE,48,5.1,13.0,61,0.00,,,0.00,WUHU216DAVISVP2,2013-03-07 01:06:00,
2013-03-06 20:11:00,37.7,25.5,30.13,NNE,20,6.0,13.0,61,0.00,,,0.00,WUHU216DAVISVP2,2013-03-07 01:11:00,
2013-03-06 20:16:00,37.7,25.5,30.13,NNE,21,7.2,12.0,61,0.00,,,0.00,WUHU216DAVISVP2,2013-03-07 01:16:00,
2013-03-06 20:21:00,37.7,25.5,30.13,NNE,20,6.0,11.0,61,0.00,,,0.00,WUHU216DAVISVP2,2013-03-07 01:21:00,
2013-03-06 20:26:00,37.6,25.4,30.12,NNE,28,7.2,12.0,61,0.00,,,0.00,WUHU216DAVISVP2,2013-03-07 01:26:00,
2013-03-06 20:31:00,37.7,25.5,30.12,NNE,30,6.5,15.0,61,0.00,,,0.00,WUHU216DAVISVP2,2013-03-07 01:31:00,
2013-03-06 20:36:00,37.6,25.4,30.12,NE,37,8.0,15.0,61,0.00,,,0.00,WUHU216DAVISVP2,2013-03-07 01:36:00,
2013-03-06 20:41:00,37.6,25.4,30.12,NNE,27,4.0,14.0,61,0.00,,,0.00,WUHU216DAVISVP2,2013-03-07 01:41:00,
2013-03-06 20:46:00,37.6,25.4,30.12,NE,36,5.7,14.0,61,0.00,,,0.00,WUHU216DAVISVP2,2013-03-07 01:46:00,
2013-03-06 20:51:00,37.5,25.3,30.12,NNE,33,6.1,9.0,61,0.00,,,0.00,WUHU216DAVISVP2,2013-03-07 01:51:00,
2013-03-06 20:56:00,37.5,24.9,30.12,NE,48,5.4,10.0,60,0.00,,,0.00,WUHU216DAVISVP2,2013-03-07 01:56:00,
2013-03-06 21:01:00,37.5,24.9,30.12,NNE,27,5.9,10.0,60,0.00,,,0.00,WUHU216DAVISVP2,2013-03-07 02:01:00,
2013-03-06 21:06:00,37.5,24.9,30.12,ENE,60,7.4,11.0,60,0.00,,,0.00,WUHU216DAVISVP2,2013-03-07 02:06:00,
2013-03-06 21:11:00,37.5,25.3,30.12,NNE,30,5.7,11.0,61,0.00,,,0.00,WUHU216DAVISVP2,2013-03-07 02:11:00,
2013-03-06 21:16:00,37.5,25.3,30.12,East,81,8.0,13.0,61,0.00,,,0.00,WUHU216DAVISVP2,2013-03-07 02:16:00,
2013-03-06 21:21:00,37.4,25.2,30.12,ENE,68,8.0,13.0,61,0.00,,,0.00,WUHU216DAVISVP2,2013-03-07 02:21:00,
2013-03-06 21:26:00,37.4,25.2,30.12,NE,39,10.0,14.0,61,0.00,,,0.00,WUHU216DAVISVP2,2013-03-07 02:26:00,
2013-03-06 21:31:00,37.3,25.1,30.12,NNE,17,4.3,14.0,61,0.00,,,0.00,WUHU216DAVISVP2,2013-03-07 02:31:00,
2013-03-06 21:36:00,37.2,25.0,30.12,NNE,21,5.9,12.0,61,0.00,,,0.00,WUHU216DAVISVP2,2013-03-07 02:36:00,
2013-03-06 21:41:00,37.1,25.0,30.12,NNE,22,5.1,12.0,61,0.00,,,0.00,WUHU216DAVISVP2,2013-03-07 02:41:00,
2013-03-06 21:46:00,37.0,24.9,30.12,NE,34,6.0,9.0,61,0.00,,,0.00,WUHU216DAVISVP2,2013-03-07 02:46:00,
2013-03-06 21:51:00,37.0,24.9,30.12,NNE,15,6.0,9.0,61,0.00,,,0.00,WUHU216DAVISVP2,2013-03-07 02:51:00,
2013-03-06 21:56:00,37.0,25.3,30.12,NNE,18,4.6,10.0,62,0.00,,,0.00,WUHU216DAVISVP2,2013-03-07 02:56:00,
2013-03-06 22:01:00,36.9,24.8,30.12,NE,43,7.0,14.0,61,0.00,,,0.00,WUHU216DAVISVP2,2013-03-07 03:01:00,
2013-03-06 22:06:00,36.9,25.2,30.12,NNE,21,5.6,14.0,62,0.00,,,0.00,WUHU216DAVISVP2,2013-03-07 03:06:00,
2013-03-06 22:11:00,36.8,25.1,30.11,NNE,20,10.0,13.0,62,0.00,,,0.00,WUHU216DAVISVP2,2013-03-07 03:11:00,
2013-03-06 22:16:00,36.8,25.1,30.11,NNE,31,6.0,12.0,62,0.00,,,0.00,WUHU216DAVISVP2,2013-03-07 03:16:00,
2013-03-06 22:21:00,36.8,25.5,30.12,NNE,23,8.0,11.0,63,0.00,,,0.00,WUHU216DAVISVP2,2013-03-07 03:21:00,
2013-03-06 22:26:00,36.7,25.4,30.12,NE,39,7.0,11.0,63,0.00,,,0.00,WUHU216DAVISVP2,2013-03-07 03:26:00,
2013-03-06 22:31:00,36.7,25.4,30.11,NE,41,6.0,9.0,63,0.00,,,0.00,WUHU216DAVISVP2,2013-03-07 03:31:00,
2013-03-06 22:36:00,36.7,25.4,30.11,NNE,26,6.0,9.0,63,0.00,,,0.00,WUHU216DAVISVP2,2013-03-07 03:36:00,
2013-03-06 22:41:00,36.6,25.6,30.11,NNE,18,8.0,9.0,64,0.00,,,0.00,WUHU216DAVISVP2,2013-03-07 03:41:00,
2013-03-06 22:46:00,36.6,25.6,30.11,NNE,13,7.0,10.0,64,0.00,,,0.00,WUHU216DAVISVP2,2013-03-07 03:46:00,
2013-03-06 22:51:00,36.5,25.5,30.11,NE,36,5.9,10.0,64,0.00,,,0.00,WUHU216DAVISVP2,2013-03-07 03:51:00,
2013-03-06 22:56:00,36.4,25.5,30.12,North,5,6.0,9.0,64,0.00,,,0.00,WUHU216DAVISVP2,2013-03-07 03:56:00,
2013-03-06 23:01:00,36.4,25.8,30.12,NNE,22,7.0,10.0,65,0.00,,,0.00,WUHU216DAVISVP2,2013-03-07 04:01:00,
2013-03-06 23:06:00,36.4,25.5,30.12,NE,44,7.0,10.0,64,0.00,,,0.00,WUHU216DAVISVP2,2013-03-07 04:06:00,
2013-03-06 23:11:00,36.4,25.7,30.12,NNE,23,5.0,9.0,65,0.00,,,0.00,WUHU216DAVISVP2,2013-03-07 04:11:00,
2013-03-06 23:16:00,36.4,25.5,30.12,NNE,30,4.0,9.0,64,0.00,,,0.00,WUHU216DAVISVP2,2013-03-07 04:16:00,
2013-03-06 23:21:00,36.4,25.5,30.12,NNE,13,6.0,11.0,64,0.00,,,0.00,WUHU216DAVISVP2,2013-03-07 04:21:00,
2013-03-06 23:26:00,36.5,25.5,30.12,NNE,29,5.2,12.0,64,0.00,,,0.00,WUHU216DAVISVP2,2013-03-07 04:26:00,
2013-03-06 23:31:00,36.4,25.5,30.12,NNE,18,7.0,12.0,64,0.00,,,0.00,WUHU216DAVISVP2,2013-03-07 04:31:00,
2013-03-06 23:36:00,36.4,25.4,30.12,NNE,27,5.3,11.0,64,0.00,,,0.00,WUHU216DAVISVP2,2013-03-07 04:36:00,
2013-03-06 23:41:00,36.4,25.5,30.12,NE,37,6.0,11.0,64,0.00,,,0.00,WUHU216DAVISVP2,2013-03-07 04:41:00,
2013-03-06 23:46:00,36.3,25.4,30.11,NNE,23,7.0,10.0,64,0.00,,,0.00,WUHU216DAVISVP2,2013-03-07 04:46:00,
2013-03-06 23:51:00,36.3,25.4,30.11,NE,41,4.9,11.0,64,0.00,,,0.00,WUHU216DAVISVP2,2013-03-07 04:51:00,
2013-03-06 23:56:00,36.3,25.4,30.11,NNE,30,7.5,13.0,64,0.00,,,0.00,WUHU216DAVISVP2,2013-03-07 04:56:00,